Time;durP1;ratioP1;P1;durP2;ratioP2;P2;SDS_P1;SDS_P2;PMS_P1;PMS_P2;Temp;Humidity;BMP_temperature;BMP_pressure;BME280_temperature;BME280_humidity;BME280_pressure;Samples;Min_cycle;Max_cycle;Signal;HPM_P1;HPM_P2
2021/03/23 00:01:26;;;;;;;19.70;14.32;;;8.30;99.90;;;;;;5054114;28;20029;-69
2021/03/23 00:03:52;;;;;;;23.65;14.23;;;8.30;99.90;;;;;;5055226;28;20116;-71
2021/03/23 00:06:24;;;;;;;24.65;14.68;;;8.30;99.90;;;;;;5054818;28;20036;-71
2021/03/23 00:08:53;;;;;;;20.23;13.43;;;8.30;99.90;;;;;;5056933;28;20021;-71
2021/03/23 00:11:22;;;;;;;23.65;14.45;;;8.30;99.90;;;;;;5056604;28;20032;-71
2021/03/23 00:13:48;;;;;;;30.92;14.70;;;8.30;99.90;;;;;;5058134;28;20090;-72
2021/03/23 00:16:15;;;;;;;21.27;14.65;;;8.30;99.90;;;;;;5075749;28;20052;-73
2021/03/23 00:18:41;;;;;;;21.42;14.32;;;8.30;99.90;;;;;;5077710;28;20020;-72
2021/03/23 00:21:08;;;;;;;22.45;14.55;;;8.20;99.90;;;;;;5075773;28;20021;-74
2021/03/23 00:23:34;;;;;;;19.50;15.25;;;8.30;99.90;;;;;;5074462;28;20032;-69
2021/03/23 00:25:59;;;;;;;19.08;13.55;;;8.30;99.90;;;;;;5075647;28;20032;-70
2021/03/23 00:28:25;;;;;;;19.83;12.98;;;8.30;99.90;;;;;;5074174;28;20039;-71
2021/03/23 00:30:55;;;;;;;19.77;13.85;;;8.30;99.90;;;;;;5077294;28;20489;-71
2021/03/23 00:33:21;;;;;;;19.83;13.45;;;8.20;99.90;;;;;;5080715;28;20051;-74
2021/03/23 00:35:48;;;;;;;22.58;14.40;;;8.20;99.90;;;;;;5075672;28;20032;-71
2021/03/23 00:38:14;;;;;;;23.23;14.90;;;8.30;99.90;;;;;;5073691;28;20090;-78
2021/03/23 00:40:41;;;;;;;23.90;15.07;;;8.30;99.90;;;;;;5074264;28;20021;-69
2021/03/23 00:43:08;;;;;;;28.48;15.23;;;8.30;99.90;;;;;;5074136;28;20055;-73
2021/03/23 00:45:39;;;;;;;23.38;14.90;;;8.20;99.90;;;;;;5074665;28;20096;-75
2021/03/23 00:48:06;;;;;;;26.38;15.48;;;8.20;99.90;;;;;;5073738;28;20031;-73
2021/03/23 00:50:31;;;;;;;24.10;15.40;;;8.20;99.90;;;;;;5073402;28;20024;-75
2021/03/23 00:52:57;;;;;;;24.27;15.15;;;8.20;99.90;;;;;;5074294;28;20355;-72
2021/03/23 00:55:23;;;;;;;26.27;15.55;;;8.10;99.90;;;;;;5075298;28;20032;-69
2021/03/23 00:57:49;;;;;;;24.17;14.70;;;8.20;99.90;;;;;;5074259;28;20354;-70
2021/03/23 01:00:17;;;;;;;25.00;15.85;;;8.10;99.90;;;;;;5075237;28;20024;-72
2021/03/23 01:02:44;;;;;;;27.00;15.50;;;8.20;99.90;;;;;;5074131;28;20021;-70
2021/03/23 01:05:12;;;;;;;25.30;15.60;;;8.20;99.90;;;;;;5075564;28;20039;-75
2021/03/23 01:07:38;;;;;;;20.98;14.35;;;8.10;99.90;;;;;;5074302;28;20028;-71
2021/03/23 01:10:06;;;;;;;27.67;15.75;;;8.10;99.90;;;;;;5075180;28;20488;-68
2021/03/23 01:12:32;;;;;;;23.48;15.00;;;8.10;99.90;;;;;;5074529;28;20056;-70
2021/03/23 01:14:57;;;;;;;24.65;15.82;;;8.10;99.90;;;;;;5073572;28;20091;-73
2021/03/23 01:17:23;;;;;;;20.40;14.38;;;8.20;99.90;;;;;;5073457;28;20029;-71
2021/03/23 01:19:49;;;;;;;23.45;15.60;;;8.10;99.90;;;;;;5075088;28;20432;-70
2021/03/23 01:22:15;;;;;;;23.77;14.98;;;8.10;99.90;;;;;;5073176;28;20028;-71
2021/03/23 01:24:40;;;;;;;23.02;15.15;;;8.10;99.90;;;;;;5074038;28;20170;-75
2021/03/23 01:27:07;;;;;;;24.20;15.02;;;8.10;99.90;;;;;;5073910;28;20372;-72
2021/03/23 01:29:32;;;;;;;21.85;15.30;;;8.10;99.90;;;;;;5074600;28;20032;-70
2021/03/23 01:31:59;;;;;;;24.50;14.68;;;8.10;99.90;;;;;;5074395;28;20032;-76
2021/03/23 01:34:25;;;;;;;24.50;14.50;;;8.10;99.90;;;;;;5073320;28;20032;-73
2021/03/23 01:36:50;;;;;;;23.63;15.30;;;8.00;99.90;;;;;;5073665;28;20032;-77
2021/03/23 01:39:16;;;;;;;22.42;15.07;;;8.10;99.90;;;;;;5072968;28;20393;-73
2021/03/23 01:41:42;;;;;;;25.35;15.05;;;8.10;99.90;;;;;;5073452;28;20390;-68
2021/03/23 01:44:08;;;;;;;22.42;15.35;;;8.10;99.90;;;;;;5074299;28;20036;-69
2021/03/23 01:46:34;;;;;;;19.70;14.10;;;8.10;99.90;;;;;;5072851;28;20075;-69
2021/03/23 01:49:00;;;;;;;25.95;15.20;;;8.20;99.90;;;;;;5074891;28;20025;-72
2021/03/23 01:51:27;;;;;;;23.42;13.73;;;8.20;99.90;;;;;;5073582;28;20028;-68
2021/03/23 01:54:01;;;;;;;24.17;14.50;;;8.10;99.90;;;;;;5073093;28;20492;-70
2021/03/23 01:56:27;;;;;;;24.95;15.27;;;8.20;99.90;;;;;;5068234;28;20037;-73
2021/03/23 01:58:54;;;;;;;26.27;16.08;;;8.20;99.90;;;;;;5076396;28;20361;-73
2021/03/23 02:01:21;;;;;;;23.08;15.20;;;8.10;99.90;;;;;;5073275;28;20029;-69
2021/03/23 02:03:48;;;;;;;23.90;14.82;;;8.10;99.90;;;;;;5074229;28;20082;-70
2021/03/23 02:06:47;;;;;;;25.98;14.15;;;8.10;99.90;;;;;;5073256;28;20055;-68
2021/03/23 02:09:21;;;;;;;28.55;14.45;;;8.10;99.90;;;;;;5043150;28;20033;-70
2021/03/23 02:11:53;;;;;;;24.60;14.80;;;8.20;99.90;;;;;;5075924;28;20025;-69
2021/03/23 02:14:20;;;;;;;23.17;14.80;;;8.10;99.90;;;;;;5075444;28;20086;-71
2021/03/23 02:16:47;;;;;;;29.30;16.15;;;8.10;99.90;;;;;;5038051;28;20041;-71
2021/03/23 02:19:15;;;;;;;23.50;14.82;;;8.10;99.90;;;;;;5037334;28;20025;-74
2021/03/23 02:21:41;;;;;;;24.17;15.00;;;8.20;99.90;;;;;;5035986;28;20059;-71
2021/03/23 02:24:10;;;;;;;22.02;14.15;;;8.20;99.90;;;;;;5037093;28;20035;-69
2021/03/23 02:26:36;;;;;;;21.48;13.98;;;8.20;99.90;;;;;;5055677;28;20021;-73
2021/03/23 02:29:18;;;;;;;24.02;14.10;;;8.10;99.90;;;;;;5037918;28;20025;-71
2021/03/23 02:31:48;;;;;;;21.48;13.48;;;8.10;99.90;;;;;;5037890;28;20478;-73
2021/03/23 02:34:18;;;;;;;22.15;14.35;;;8.10;99.90;;;;;;5037795;28;20029;-72
2021/03/23 02:36:46;;;;;;;24.05;14.00;;;8.20;99.90;;;;;;5036487;28;20123;-71
2021/03/23 02:39:17;;;;;;;24.88;14.13;;;8.10;99.90;;;;;;5054499;28;20061;-67
2021/03/23 02:41:43;;;;;;;21.33;14.53;;;8.10;99.90;;;;;;5054698;28;20021;-69
2021/03/23 02:44:09;;;;;;;20.60;13.05;;;8.10;99.90;;;;;;5037584;28;20036;-69
2021/03/23 02:46:35;;;;;;;21.95;14.00;;;8.20;99.90;;;;;;5055736;28;20091;-72
2021/03/23 02:49:02;;;;;;;21.50;12.98;;;8.10;99.90;;;;;;5058180;28;20036;-68
2021/03/23 02:51:28;;;;;;;26.15;13.95;;;8.10;99.90;;;;;;5039289;28;20044;-71
2021/03/23 02:53:53;;;;;;;24.70;14.23;;;8.00;99.90;;;;;;5057667;28;20028;-71
2021/03/23 02:56:20;;;;;;;23.80;14.35;;;7.90;99.90;;;;;;5039237;28;20033;-70
2021/03/23 02:58:46;;;;;;;24.38;14.85;;;7.90;99.90;;;;;;5040601;28;20105;-73
2021/03/23 03:01:13;;;;;;;21.63;13.27;;;7.80;99.90;;;;;;5040254;28;20036;-75
2021/03/23 03:03:39;;;;;;;24.73;14.20;;;7.90;99.90;;;;;;5057358;28;20132;-70
2021/03/23 03:06:06;;;;;;;20.55;12.70;;;7.90;99.90;;;;;;5039874;28;20068;-73
2021/03/23 03:08:32;;;;;;;25.08;14.05;;;8.00;99.90;;;;;;5037003;28;20021;-71
2021/03/23 03:10:58;;;;;;;24.60;14.63;;;8.10;99.90;;;;;;5037399;28;20037;-72
2021/03/23 03:13:24;;;;;;;23.63;14.95;;;8.10;99.90;;;;;;5039537;28;20134;-73
2021/03/23 03:15:52;;;;;;;21.23;13.80;;;8.00;99.90;;;;;;5057105;28;20690;-71
2021/03/23 03:18:19;;;;;;;23.58;13.82;;;8.10;99.90;;;;;;5075447;28;20370;-76
2021/03/23 03:20:45;;;;;;;22.67;13.88;;;8.00;99.90;;;;;;5075704;28;20035;-71
2021/03/23 03:23:11;;;;;;;27.42;14.00;;;8.00;99.90;;;;;;5077826;28;20025;-70
2021/03/23 03:25:37;;;;;;;28.23;14.40;;;8.00;99.90;;;;;;5076263;28;20032;-70
2021/03/23 03:28:03;;;;;;;23.40;13.38;;;8.00;99.90;;;;;;5077837;28;20077;-73
2021/03/23 03:30:31;;;;;;;23.23;14.38;;;7.90;99.90;;;;;;5074837;28;20101;-69
2021/03/23 03:32:57;;;;;;;25.30;14.63;;;8.00;99.90;;;;;;5075550;28;20468;-68
2021/03/23 03:35:29;;;;;;;25.95;14.63;;;8.00;99.90;;;;;;5075172;28;20040;-74
2021/03/23 03:37:55;;;;;;;28.33;13.85;;;7.90;99.90;;;;;;5076603;28;20509;-74
2021/03/23 03:40:24;;;;;;;23.08;13.13;;;7.80;99.90;;;;;;5076241;28;20020;-69
2021/03/23 03:42:51;;;;;;;23.63;13.10;;;7.80;99.90;;;;;;5075505;28;20028;-69
2021/03/23 03:45:18;;;;;;;20.63;13.93;;;7.90;99.90;;;;;;5075632;28;20028;-68
2021/03/23 03:47:43;;;;;;;19.65;13.30;;;7.90;99.90;;;;;;5074063;28;20042;-70
2021/03/23 03:50:10;;;;;;;19.10;12.88;;;7.90;99.90;;;;;;5075437;28;20020;-68
2021/03/23 03:52:36;;;;;;;17.77;11.38;;;8.00;99.90;;;;;;5074373;28;20036;-68
2021/03/23 03:55:02;;;;;;;21.70;12.52;;;7.90;99.90;;;;;;5073907;28;20029;-68
2021/03/23 03:57:28;;;;;;;23.40;12.95;;;8.00;99.90;;;;;;5074405;28;20033;-69
2021/03/23 03:59:54;;;;;;;23.67;14.13;;;7.90;99.90;;;;;;5073546;28;20086;-69
2021/03/23 04:02:19;;;;;;;20.17;12.35;;;7.90;99.90;;;;;;5074457;28;20029;-68
2021/03/23 04:04:46;;;;;;;16.92;12.05;;;8.00;99.90;;;;;;5073827;28;20543;-68
2021/03/23 04:07:12;;;;;;;18.45;12.27;;;8.00;99.90;;;;;;5075103;28;20445;-72
2021/03/23 04:09:38;;;;;;;21.05;13.40;;;8.00;99.90;;;;;;5073382;28;20111;-70
2021/03/23 04:12:06;;;;;;;18.60;13.02;;;8.00;99.90;;;;;;5073679;28;20056;-68
2021/03/23 04:14:32;;;;;;;20.30;12.63;;;7.90;99.90;;;;;;5071780;28;20377;-69
2021/03/23 04:16:58;;;;;;;19.73;12.70;;;7.90;99.90;;;;;;5036905;28;20033;-68
2021/03/23 04:19:23;;;;;;;21.52;13.80;;;7.90;99.90;;;;;;5037792;28;20029;-74
2021/03/23 04:21:49;;;;;;;22.90;14.38;;;7.90;99.90;;;;;;5036481;28;20025;-68
2021/03/23 04:24:15;;;;;;;22.35;13.40;;;7.80;99.90;;;;;;5055469;28;20028;-71
2021/03/23 04:26:40;;;;;;;21.67;13.88;;;7.80;99.90;;;;;;5053793;28;20100;-68
2021/03/23 04:29:06;;;;;;;20.80;13.93;;;7.90;99.90;;;;;;5036983;28;20087;-69
2021/03/23 04:31:42;;;;;;;23.75;14.02;;;8.00;99.90;;;;;;5035901;28;20029;-70
2021/03/23 04:34:07;;;;;;;22.05;13.52;;;7.90;99.90;;;;;;5050675;28;20416;-69
2021/03/23 04:36:34;;;;;;;21.63;14.68;;;7.70;99.90;;;;;;5036115;28;20028;-69
2021/03/23 04:39:01;;;;;;;21.90;14.55;;;7.80;99.90;;;;;;5037275;28;20381;-69
2021/03/23 04:41:26;;;;;;;24.50;15.43;;;7.90;99.90;;;;;;5035495;28;20026;-70
2021/03/23 04:43:53;;;;;;;23.27;14.40;;;7.90;99.90;;;;;;5026772;28;20037;-72
2021/03/23 04:46:25;;;;;;;22.33;15.07;;;7.90;99.90;;;;;;5036896;28;20033;-70
2021/03/23 04:48:51;;;;;;;25.20;15.30;;;7.90;99.90;;;;;;5054637;28;20025;-69
2021/03/23 04:51:18;;;;;;;21.80;14.93;;;7.90;99.90;;;;;;5055877;28;20087;-68
2021/03/23 04:53:44;;;;;;;27.83;15.43;;;7.80;99.90;;;;;;5057021;28;20032;-68
2021/03/23 04:56:23;;;;;;;31.80;17.08;;;7.80;99.90;;;;;;5058559;28;20029;-71
2021/03/23 04:58:49;;;;;;;26.30;16.48;;;7.80;99.90;;;;;;5037470;28;20036;-69
2021/03/23 05:01:15;;;;;;;28.88;17.27;;;7.70;99.90;;;;;;5020721;28;20116;-69
2021/03/23 05:03:41;;;;;;;30.67;17.00;;;7.80;99.90;;;;;;5038449;28;20041;-69
2021/03/23 05:06:09;;;;;;;27.85;16.55;;;7.70;99.90;;;;;;5042923;28;20040;-73
2021/03/23 05:08:37;;;;;;;25.05;17.55;;;7.70;99.90;;;;;;5029179;28;20025;-69
2021/03/23 05:11:04;;;;;;;29.35;18.10;;;7.70;99.90;;;;;;5036221;28;20029;-70
2021/03/23 05:13:30;;;;;;;25.63;17.00;;;7.80;99.90;;;;;;5056075;28;20037;-70
2021/03/23 05:15:56;;;;;;;26.45;17.13;;;7.90;99.90;;;;;;5057336;28;20494;-70
2021/03/23 05:18:22;;;;;;;26.42;16.23;;;7.80;99.90;;;;;;5038081;28;20036;-69
2021/03/23 05:20:48;;;;;;;26.35;16.48;;;7.80;99.90;;;;;;5037384;28;20395;-69
2021/03/23 05:23:14;;;;;;;27.73;16.08;;;7.90;99.90;;;;;;5016530;28;20057;-69
2021/03/23 05:25:41;;;;;;;23.13;15.93;;;7.80;99.90;;;;;;5016562;28;20117;-68
2021/03/23 05:28:08;;;;;;;28.55;16.77;;;7.80;99.90;;;;;;5017905;28;20029;-69
2021/03/23 05:30:34;;;;;;;29.90;17.27;;;7.80;99.90;;;;;;5016369;28;20079;-68
2021/03/23 05:33:00;;;;;;;27.15;15.85;;;7.80;99.90;;;;;;5016706;28;20029;-68
2021/03/23 05:35:26;;;;;;;28.98;16.77;;;7.90;99.90;;;;;;5020491;28;20082;-69
2021/03/23 05:37:52;;;;;;;26.60;16.45;;;8.00;99.90;;;;;;5036521;28;20025;-69
2021/03/23 05:40:28;;;;;;;25.75;16.20;;;7.80;99.90;;;;;;5055269;28;20025;-68
2021/03/23 05:43:22;;;;;;;32.30;17.05;;;7.60;99.90;;;;;;5053552;28;20033;-69
2021/03/23 05:45:52;;;;;;;25.75;15.82;;;7.70;99.90;;;;;;5035380;28;20589;-69
2021/03/23 05:48:25;;;;;;;25.70;14.82;;;7.70;99.90;;;;;;5035880;28;20028;-71
2021/03/23 05:50:59;;;;;;;34.30;17.77;;;7.70;99.90;;;;;;5052891;28;20206;-69
2021/03/23 05:53:50;;;;;;;27.55;16.80;;;7.60;99.90;;;;;;5036092;28;20025;-69
2021/03/23 05:56:17;;;;;;;32.83;18.13;;;7.80;99.90;;;;;;5034819;28;20037;-71
2021/03/23 05:58:51;;;;;;;27.17;16.48;;;7.80;99.90;;;;;;5052611;28;20078;-70
2021/03/23 06:01:23;;;;;;;27.67;16.13;;;7.80;99.90;;;;;;5035888;28;20462;-70
2021/03/23 06:04:03;;;;;;;27.58;15.95;;;7.80;99.90;;;;;;5035237;28;20025;-68
2021/03/23 06:06:41;;;;;;;30.25;17.63;;;7.80;99.90;;;;;;5035344;28;20040;-69
2021/03/23 06:09:11;;;;;;;31.27;17.08;;;7.70;99.90;;;;;;5036024;28;20162;-70
2021/03/23 06:11:42;;;;;;;31.13;16.65;;;7.80;99.90;;;;;;5035765;28;20115;-69
2021/03/23 06:14:33;;;;;;;30.55;15.30;;;7.80;99.90;;;;;;5037123;28;20068;-71
2021/03/23 06:17:17;;;;;;;27.60;16.63;;;7.80;99.90;;;;;;5056366;28;20053;-72
2021/03/23 06:20:04;;;;;;;32.15;16.25;;;7.80;99.90;;;;;;5037424;28;20032;-71
2021/03/23 06:22:42;;;;;;;30.70;17.73;;;7.90;99.90;;;;;;5038840;28;20048;-72
2021/03/23 06:25:40;;;;;;;29.40;16.77;;;7.90;99.90;;;;;;5039794;28;20029;-68
2021/03/23 06:28:23;;;;;;;37.03;19.33;;;7.90;99.90;;;;;;5056530;28;20377;-72
2021/03/23 06:31:05;;;;;;;29.33;16.15;;;7.80;99.90;;;;;;5036560;28;20037;-69
2021/03/23 06:33:32;;;;;;;30.65;17.48;;;7.90;99.90;;;;;;5045000;28;20080;-68
2021/03/23 06:36:17;;;;;;;34.90;18.75;;;8.00;99.90;;;;;;5017184;28;20034;-68
2021/03/23 06:38:43;;;;;;;32.55;18.15;;;8.00;99.90;;;;;;5028895;28;20394;-72
2021/03/23 06:41:30;;;;;;;28.83;18.40;;;7.90;99.90;;;;;;5016930;28;20034;-69
2021/03/23 06:44:15;;;;;;;36.75;19.02;;;8.00;99.90;;;;;;5016827;28;20068;-71
2021/03/23 06:46:46;;;;;;;32.67;18.23;;;8.00;99.90;;;;;;5016561;28;20034;-69
2021/03/23 06:49:12;;;;;;;;;;;8.00;99.90;;;;;;5016605;28;20382;-69
2021/03/23 06:52:04;;;;;;;36.22;19.70;;;8.00;99.90;;;;;;5015411;28;19952;-72
2021/03/23 06:54:31;;;;;;;28.55;17.30;;;7.90;99.90;;;;;;5015409;28;20041;-71
2021/03/23 06:57:15;;;;;;;29.95;18.30;;;7.90;99.90;;;;;;5015827;28;20033;-73
2021/03/23 07:00:27;;;;;;;37.30;18.58;;;7.90;99.90;;;;;;5011647;28;20038;-71
2021/03/23 07:03:09;;;;;;;34.13;18.83;;;7.90;99.90;;;;;;4937827;29;20091;-69
2021/03/23 07:05:38;;;;;;;33.42;19.85;;;7.90;99.90;;;;;;4937657;29;20525;-69
2021/03/23 07:08:09;;;;;;;36.55;19.83;;;7.90;99.90;;;;;;4935957;29;20043;-71
2021/03/23 07:10:41;;;;;;;32.90;19.42;;;8.00;99.90;;;;;;4936601;29;20094;-71
2021/03/23 07:13:29;;;;;;;37.25;20.35;;;8.00;99.90;;;;;;4936684;29;20110;-68
2021/03/23 07:16:24;;;;;;;34.38;20.55;;;8.00;99.90;;;;;;4944867;29;20236;-70
2021/03/23 07:18:51;;;;;;;36.80;20.92;;;8.00;99.90;;;;;;4930866;29;20047;-68
2021/03/23 07:21:25;;;;;;;37.15;20.77;;;8.10;99.90;;;;;;4952041;29;20065;-70
2021/03/23 07:24:19;;;;;;;42.80;21.90;;;8.20;99.90;;;;;;4951859;29;20063;-70
2021/03/23 07:27:06;;;;;;;39.50;21.25;;;8.10;99.90;;;;;;4951806;29;20043;-73
2021/03/23 07:29:34;;;;;;;39.22;23.20;;;8.10;99.90;;;;;;4952592;28;20062;-69
2021/03/23 07:32:27;;;;;;;36.63;21.92;;;8.10;99.90;;;;;;4970657;28;20038;-70
2021/03/23 07:35:17;;;;;;;37.80;22.33;;;8.20;99.90;;;;;;5032467;28;20036;-68
2021/03/23 07:37:54;;;;;;;41.97;23.17;;;8.30;99.90;;;;;;5018131;28;20029;-69
2021/03/23 07:40:38;;;;;;;36.70;22.98;;;8.30;99.90;;;;;;5037772;28;20041;-69
2021/03/23 07:43:35;;;;;;;38.53;23.27;;;8.30;99.50;;;;;;5019762;28;20029;-69
2021/03/23 07:46:45;;;;;;;35.88;22.70;;;8.30;99.40;;;;;;5018812;28;20210;-68
2021/03/23 07:49:36;;;;;;;36.28;20.80;;;8.10;99.20;;;;;;4979038;28;20030;-72
2021/03/23 07:52:30;;;;;;;37.23;20.53;;;8.20;99.20;;;;;;5035075;28;20065;-71
2021/03/23 07:55:00;;;;;;;35.83;19.13;;;8.00;99.40;;;;;;5009648;28;20550;-69
2021/03/23 07:57:31;;;;;;;37.88;20.40;;;8.10;99.20;;;;;;5020628;28;20033;-69
2021/03/23 08:00:22;;;;;;;35.42;20.77;;;8.00;99.40;;;;;;5019841;28;20148;-71
2021/03/23 08:03:12;;;;;;;37.78;21.30;;;8.00;99.20;;;;;;5023069;28;20033;-70
2021/03/23 08:06:02;;;;;;;36.42;19.83;;;8.10;99.40;;;;;;5039149;28;20462;-70
2021/03/23 08:08:57;;;;;;;35.90;19.20;;;8.10;99.60;;;;;;5022528;28;20026;-70
2021/03/23 08:11:38;;;;;;;45.22;20.58;;;8.20;99.70;;;;;;5015604;28;20033;-70
2021/03/23 08:14:41;;;;;;;30.83;19.38;;;8.30;99.20;;;;;;5016384;28;20032;-69
2021/03/23 08:17:26;;;;;;;36.90;19.23;;;8.10;99.80;;;;;;5055546;28;20102;-72
2021/03/23 08:20:21;;;;;;;35.75;19.45;;;8.10;99.80;;;;;;5036501;28;20083;-68
2021/03/23 08:23:35;;;;;;;42.10;20.75;;;8.30;99.40;;;;;;5015734;28;20497;-68
2021/03/23 08:26:29;;;;;;;36.55;17.70;;;8.20;99.60;;;;;;5029185;28;20074;-69
2021/03/23 08:29:04;;;;;;;35.13;17.77;;;8.30;99.10;;;;;;5031482;28;20029;-70
2021/03/23 08:32:01;;;;;;;44.90;19.08;;;8.20;99.40;;;;;;5036457;28;20425;-70
2021/03/23 08:34:37;;;;;;;32.90;19.35;;;8.40;99.00;;;;;;5035906;28;20116;-68
2021/03/23 08:37:15;;;;;;;30.38;17.42;;;8.30;98.80;;;;;;5036117;28;20036;-68
2021/03/23 08:39:54;;;;;;;30.83;18.05;;;8.10;99.30;;;;;;5036647;28;20086;-72
2021/03/23 08:42:23;;;;;;;38.47;21.17;;;8.20;99.50;;;;;;5036268;28;20025;-68
2021/03/23 08:45:00;;;;;;;33.03;21.20;;;8.20;99.20;;;;;;5053753;28;20487;-68
2021/03/23 08:47:39;;;;;;;35.83;20.00;;;8.20;99.10;;;;;;5036940;28;20036;-72
2021/03/23 08:50:22;;;;;;;36.60;19.55;;;8.30;98.90;;;;;;5044066;28;20028;-68
2021/03/23 08:52:56;;;;;;;33.60;19.88;;;8.40;98.60;;;;;;5067314;28;20458;-70
2021/03/23 08:55:31;;;;;;;36.72;19.15;;;8.40;98.70;;;;;;5042782;28;20104;-69
2021/03/23 08:58:04;;;;;;;31.25;18.63;;;8.50;98.50;;;;;;5045496;28;20024;-69
2021/03/23 09:00:40;;;;;;;30.77;19.90;;;8.60;98.90;;;;;;5036613;28;20025;-70
2021/03/23 09:03:09;;;;;;;33.15;19.73;;;8.60;98.40;;;;;;5064246;28;20119;-72
2021/03/23 09:05:53;;;;;;;34.63;19.02;;;8.50;98.60;;;;;;5061601;28;20112;-70
2021/03/23 09:08:22;;;;;;;37.30;21.17;;;8.50;98.30;;;;;;5053085;28;20025;-70
2021/03/23 09:11:00;;;;;;;30.77;19.17;;;8.60;98.30;;;;;;5047419;28;20024;-70
2021/03/23 09:13:35;;;;;;;34.85;19.33;;;8.70;98.30;;;;;;5044224;28;20035;-70
2021/03/23 09:16:15;;;;;;;36.08;20.38;;;8.70;98.20;;;;;;5056799;28;20135;-69
2021/03/23 09:19:08;;;;;;;36.00;20.67;;;8.60;97.80;;;;;;5063572;28;20025;-68
2021/03/23 09:21:53;;;;;;;32.65;20.80;;;8.60;97.80;;;;;;5059919;28;20029;-70
2021/03/23 09:24:27;;;;;;;33.13;19.90;;;8.60;97.90;;;;;;5063582;28;20029;-68
2021/03/23 09:26:54;;;;;;;34.92;19.40;;;8.50;97.90;;;;;;5060312;28;20655;-69
2021/03/23 09:29:32;;;;;;;35.22;20.13;;;8.50;97.80;;;;;;5060160;28;20024;-69
2021/03/23 09:32:06;;;;;;;32.85;19.67;;;8.70;97.60;;;;;;5062060;28;20024;-73
2021/03/23 09:35:10;;;;;;;33.75;19.65;;;8.70;99.90;;;;;;5063222;28;20028;-69
2021/03/23 09:37:46;;;;;;;38.08;20.65;;;9.40;97.30;;;;;;5067318;28;20482;-71
2021/03/23 09:40:18;;;;;;;36.17;20.95;;;9.10;96.50;;;;;;5063047;28;20044;-69
2021/03/23 09:43:04;;;;;;;34.25;19.70;;;9.10;96.50;;;;;;5065915;28;20090;-70
2021/03/23 09:45:39;;;;;;;33.05;19.52;;;9.00;96.50;;;;;;5063946;28;20034;-69
2021/03/23 09:48:14;;;;;;;35.38;19.95;;;8.70;97.00;;;;;;5060569;28;20028;-70
2021/03/23 09:50:52;;;;;;;31.55;19.48;;;8.60;97.50;;;;;;5069762;28;20500;-69
2021/03/23 09:53:22;;;;;;;30.95;19.77;;;8.80;97.30;;;;;;5072167;28;20024;-69
2021/03/23 09:55:48;;;;;;;31.65;19.83;;;9.00;97.20;;;;;;5071328;28;20123;-70
2021/03/23 09:58:26;;;;;;;30.33;18.02;;;9.00;96.60;;;;;;5071349;28;20029;-70
2021/03/23 10:00:53;;;;;;;30.77;19.55;;;9.10;96.70;;;;;;5071686;28;20464;-69
2021/03/23 10:03:33;;;;;;;30.67;19.45;;;9.00;96.50;;;;;;5072165;28;20031;-71
2021/03/23 10:06:13;;;;;;;35.40;21.80;;;9.20;96.20;;;;;;5071304;28;20035;-71
2021/03/23 10:08:57;;;;;;;30.17;19.75;;;9.00;96.30;;;;;;5072932;28;20055;-69
2021/03/23 10:11:25;;;;;;;26.38;17.75;;;9.10;96.10;;;;;;5073550;28;20021;-69
2021/03/23 10:14:00;;;;;;;29.65;19.20;;;9.30;95.70;;;;;;5051517;28;20025;-70
2021/03/23 10:16:33;;;;;;;34.95;21.83;;;9.40;95.50;;;;;;5069790;28;20057;-69
2021/03/23 10:19:23;;;;;;;31.65;19.75;;;9.50;95.30;;;;;;5052488;28;20029;-71
2021/03/23 10:21:52;;;;;;;30.73;19.17;;;9.40;95.40;;;;;;5052029;28;20043;-69
2021/03/23 10:24:26;;;;;;;33.95;19.92;;;9.40;94.80;;;;;;5069649;28;20025;-70
2021/03/23 10:26:54;;;;;;;33.10;19.67;;;9.40;94.50;;;;;;5053884;28;20051;-70
2021/03/23 10:29:26;;;;;;;29.10;19.30;;;9.40;94.60;;;;;;5055791;28;20033;-70
2021/03/23 10:31:56;;;;;;;30.38;18.13;;;9.30;94.30;;;;;;5069531;28;20028;-72
2021/03/23 10:34:30;;;;;;;30.33;18.48;;;9.30;94.80;;;;;;5068967;28;20024;-70
2021/03/23 10:37:03;;;;;;;37.72;19.45;;;9.40;94.40;;;;;;5052640;28;20060;-70
2021/03/23 10:39:32;;;;;;;26.00;17.50;;;9.40;94.40;;;;;;5068405;28;20033;-71
2021/03/23 10:42:00;;;;;;;26.83;17.95;;;9.50;93.70;;;;;;5071977;28;20035;-70
2021/03/23 10:44:30;;;;;;;33.67;18.67;;;9.20;94.30;;;;;;5071053;28;20024;-70
2021/03/23 10:46:58;;;;;;;33.75;17.92;;;9.20;94.40;;;;;;5070796;28;20557;-69
2021/03/23 10:49:29;;;;;;;32.85;18.65;;;9.10;94.50;;;;;;5071145;28;20024;-70
2021/03/23 10:52:25;;;;;;;25.55;17.30;;;9.10;94.40;;;;;;5071643;28;20108;-73
2021/03/23 10:55:11;;;;;;;31.48;20.15;;;9.10;94.40;;;;;;5071098;28;20045;-72
2021/03/23 10:57:39;;;;;;;31.65;20.33;;;9.10;94.70;;;;;;5072723;28;20056;-71
2021/03/23 11:00:36;;;;;;;32.53;19.55;;;9.10;94.80;;;;;;5071132;28;20028;-70
2021/03/23 11:03:34;;;;;;;28.40;18.17;;;9.20;94.80;;;;;;5055564;28;20370;-72
2021/03/23 11:06:02;;;;;;;27.63;17.08;;;9.40;94.80;;;;;;5026732;28;20032;-71
2021/03/23 11:08:28;;;;;;;37.05;19.13;;;9.40;94.20;;;;;;5074453;28;20457;-69
2021/03/23 11:10:59;;;;;;;36.75;19.67;;;9.40;94.20;;;;;;5074395;28;20024;-73
2021/03/23 11:13:25;;;;;;;33.35;19.73;;;9.10;94.50;;;;;;5058349;28;20466;-70
2021/03/23 11:15:55;;;;;;;29.33;20.00;;;9.30;94.40;;;;;;5042385;28;20053;-72
2021/03/23 11:18:31;;;;;;;30.13;19.23;;;9.10;94.70;;;;;;5018048;28;20026;-70
2021/03/23 11:21:02;;;;;;;29.95;17.65;;;9.30;94.60;;;;;;5035079;28;20017;-72
2021/03/23 11:23:32;;;;;;;26.08;17.58;;;9.20;94.20;;;;;;5018669;28;20029;-70
2021/03/23 11:25:58;;;;;;;30.80;19.00;;;9.30;94.40;;;;;;5017724;28;20037;-73
2021/03/23 11:28:24;;;;;;;31.98;18.23;;;9.40;94.40;;;;;;5018392;28;20022;-70
2021/03/23 11:30:50;;;;;;;31.80;20.30;;;9.30;94.40;;;;;;5035702;28;20155;-72
2021/03/23 11:33:16;;;;;;;30.88;19.88;;;9.40;94.40;;;;;;5017857;28;20116;-70
2021/03/23 11:35:50;;;;;;;32.40;19.83;;;9.40;94.20;;;;;;5035790;28;20559;-70
2021/03/23 11:38:16;;;;;;;25.25;17.33;;;9.50;94.40;;;;;;5018301;28;20021;-72
2021/03/23 11:40:43;;;;;;;25.17;17.83;;;9.60;94.20;;;;;;5018340;28;20017;-73
2021/03/23 11:43:31;;;;;;;27.17;16.02;;;9.70;93.80;;;;;;5034828;28;20096;-69
2021/03/23 11:46:09;;;;;;;26.98;17.50;;;9.70;93.60;;;;;;5017434;28;20029;-71
2021/03/23 11:48:42;;;;;;;28.73;15.98;;;9.80;93.40;;;;;;5018866;28;20032;-71
2021/03/23 11:51:08;;;;;;;28.23;15.35;;;9.60;93.60;;;;;;5019138;28;20030;-71
2021/03/23 11:53:34;;;;;;;26.15;16.65;;;9.60;93.60;;;;;;5020082;28;20056;-71
2021/03/23 11:56:00;;;;;;;25.65;16.00;;;9.60;94.00;;;;;;5018855;28;20037;-73
2021/03/23 11:58:26;;;;;;;23.20;15.90;;;9.60;94.50;;;;;;5036320;28;20026;-72
2021/03/23 12:00:53;;;;;;;29.40;16.95;;;9.80;94.00;;;;;;5018889;28;20028;-72
2021/03/23 12:03:20;;;;;;;25.77;16.17;;;9.60;93.80;;;;;;5018897;28;20233;-71
2021/03/23 12:05:47;;;;;;;25.27;17.48;;;9.80;94.00;;;;;;5018113;28;20033;-72
2021/03/23 12:08:24;;;;;;;31.88;16.42;;;9.80;93.90;;;;;;5017188;28;20466;-72
2021/03/23 12:11:14;;;;;;;24.23;15.18;;;9.80;93.90;;;;;;5034598;28;20033;-71
2021/03/23 12:14:15;;;;;;;27.48;16.60;;;9.80;93.50;;;;;;5018227;28;20029;-72
2021/03/23 12:17:02;;;;;;;30.45;17.45;;;9.80;94.00;;;;;;4974788;28;20085;-72
2021/03/23 12:19:37;;;;;;;28.00;16.67;;;10.10;94.00;;;;;;5017816;28;20467;-73
2021/03/23 12:22:03;;;;;;;26.30;15.90;;;10.00;93.50;;;;;;5018017;28;20025;-71
2021/03/23 12:24:29;;;;;;;24.05;16.25;;;10.20;93.30;;;;;;5036567;28;20017;-72
2021/03/23 12:26:55;;;;;;;22.48;16.38;;;10.20;93.10;;;;;;5017930;28;20035;-72
2021/03/23 12:29:21;;;;;;;28.60;17.73;;;10.40;92.70;;;;;;5019208;28;20032;-72
2021/03/23 12:31:49;;;;;;;26.92;14.93;;;10.50;92.60;;;;;;5020295;28;20025;-72
2021/03/23 12:34:15;;;;;;;27.20;17.38;;;10.50;92.80;;;;;;5019018;28;20049;-73
2021/03/23 12:36:42;;;;;;;29.20;17.13;;;10.50;92.70;;;;;;5036494;28;20033;-71
2021/03/23 12:39:09;;;;;;;30.02;16.77;;;10.30;92.80;;;;;;5024454;28;20056;-71
2021/03/23 12:41:37;;;;;;;27.95;17.75;;;10.50;92.50;;;;;;5038381;28;20067;-70
2021/03/23 12:44:04;;;;;;;22.35;15.80;;;10.20;92.90;;;;;;5038393;28;20079;-72
2021/03/23 12:46:31;;;;;;;24.05;16.30;;;10.40;92.50;;;;;;5038895;28;20037;-74
2021/03/23 12:48:58;;;;;;;27.98;16.85;;;10.50;92.70;;;;;;5037670;28;20029;-72
2021/03/23 12:51:44;;;;;;;22.90;15.52;;;10.60;92.20;;;;;;5037611;28;20094;-71
2021/03/23 12:54:40;;;;;;;22.27;15.15;;;10.80;91.80;;;;;;5036687;28;20028;-71
2021/03/23 12:57:12;;;;;;;19.35;14.13;;;11.10;91.70;;;;;;5037051;28;20387;-72
2021/03/23 12:59:38;;;;;;;17.63;11.93;;;11.10;91.20;;;;;;5037282;28;20025;-74
2021/03/23 13:02:04;;;;;;;17.35;11.40;;;11.30;90.90;;;;;;5036127;28;20025;-70
2021/03/23 13:04:30;;;;;;;16.50;10.85;;;11.20;90.60;;;;;;5035980;28;20087;-72